createdAt,value
2019-01-04T00:00:35.643Z,21.6
2019-01-04T00:03:41.563Z,21.7
2019-01-04T00:06:47.542Z,21.6
2019-01-04T00:09:53.651Z,21.6
2019-01-04T00:12:59.637Z,21.6
2019-01-04T00:16:05.610Z,21.6
2019-01-04T00:19:11.583Z,21.5
2019-01-04T00:22:17.602Z,21.5
2019-01-04T00:25:23.503Z,21.5
2019-01-04T00:28:29.432Z,21.5
2019-01-04T00:31:35.380Z,21.5
2019-01-04T00:34:43.956Z,21.5
2019-01-04T00:37:49.901Z,21.5
2019-01-04T00:40:55.952Z,21.5
2019-01-04T00:44:01.869Z,21.5
2019-01-04T00:47:07.888Z,21.5
2019-01-04T00:50:13.845Z,21.4
2019-01-04T00:53:19.774Z,21.4
2019-01-04T00:56:25.713Z,21.4
2019-01-04T00:59:34.344Z,21.4
2019-01-04T01:02:40.242Z,21.4
2019-01-04T01:05:46.216Z,21.4
2019-01-04T01:08:52.164Z,21.4
2019-01-04T01:11:58.142Z,21.4
2019-01-04T01:15:04.180Z,21.5
2019-01-04T01:18:10.089Z,21.5
2019-01-04T01:21:16.000Z,21.5
2019-01-04T01:24:21.975Z,21.6
2019-01-04T01:27:27.985Z,21.6
2019-01-04T01:30:33.897Z,21.6
2019-01-04T01:33:39.851Z,21.6
2019-01-04T01:36:45.859Z,21.7
2019-01-04T01:39:51.864Z,21.7
2019-01-04T01:42:57.813Z,21.7
2019-01-04T01:46:03.795Z,21.7
2019-01-04T01:49:09.738Z,21.7
2019-01-04T01:52:15.716Z,21.8
2019-01-04T01:55:21.645Z,21.8
2019-01-04T01:58:27.582Z,21.8
2019-01-04T02:01:33.465Z,21.8
2019-01-04T02:04:39.391Z,21.8
2019-01-04T02:07:45.279Z,21.9
2019-01-04T02:10:51.218Z,21.9
2019-01-04T02:13:57.108Z,21.9
2019-01-04T02:17:03.102Z,21.9
2019-01-04T02:20:09.109Z,21.9
2019-01-04T02:23:15.026Z,22
2019-01-04T02:26:21.047Z,22
2019-01-04T02:29:27.057Z,22
2019-01-04T02:32:32.981Z,22
2019-01-04T02:35:39.029Z,22
2019-01-04T02:38:44.966Z,22.1
2019-01-04T02:41:50.898Z,22.1
2019-01-04T02:44:56.916Z,22.1
2019-01-04T02:48:02.911Z,22.1
2019-01-04T02:51:08.988Z,22.1
2019-01-04T02:54:14.993Z,22.1
2019-01-04T02:57:20.940Z,22.2
2019-01-04T03:00:26.918Z,22.2
2019-01-04T03:03:32.826Z,22.2
2019-01-04T03:06:38.864Z,22.2
2019-01-04T03:09:44.892Z,22.2
2019-01-04T03:12:50.951Z,22.2
2019-01-04T03:15:56.984Z,22.2
2019-01-04T03:19:02.934Z,22.2
2019-01-04T03:22:08.803Z,22.3
2019-01-04T03:25:14.735Z,22.3
2019-01-04T03:28:20.755Z,22.3
2019-01-04T03:31:29.661Z,22.3
2019-01-04T03:34:35.727Z,22.3
2019-01-04T03:37:41.675Z,22.3
2019-01-04T03:40:47.699Z,22.3
2019-01-04T03:43:53.790Z,22.4
2019-01-04T03:46:59.731Z,22.4
2019-01-04T03:50:05.743Z,22.4
2019-01-04T03:53:11.872Z,22.4
2019-01-04T03:56:17.737Z,22.4
2019-01-04T03:59:23.711Z,22.4
2019-01-04T04:02:29.557Z,22.5
2019-01-04T04:05:35.490Z,22.5
2019-01-04T04:08:41.518Z,22.6
2019-01-04T04:11:47.436Z,22.6
2019-01-04T04:14:53.383Z,22.6
2019-01-04T04:17:59.252Z,22.7
2019-01-04T04:21:05.191Z,22.7
2019-01-04T04:24:11.230Z,22.8
2019-01-04T04:27:17.260Z,22.8
2019-01-04T04:30:23.384Z,22.9
2019-01-04T04:33:29.411Z,22.9
2019-01-04T04:36:35.490Z,22.9
2019-01-04T04:39:41.545Z,22.9
2019-01-04T04:42:47.601Z,23
2019-01-04T04:45:53.613Z,23
2019-01-04T04:48:59.619Z,23
2019-01-04T04:52:05.638Z,23
2019-01-04T04:55:12.567Z,23
2019-01-04T04:58:18.510Z,23.1
2019-01-04T05:01:24.531Z,23.1
2019-01-04T05:04:30.499Z,23.1
2019-01-04T05:07:36.555Z,23.1
2019-01-04T05:10:42.539Z,23.2
2019-01-04T05:13:48.461Z,23.2
2019-01-04T05:16:54.400Z,23.2
2019-01-04T05:20:00.301Z,23.2
2019-01-04T05:23:06.372Z,23.2
2019-01-04T05:26:12.235Z,23.3
2019-01-04T05:29:18.220Z,23.3
2019-01-04T05:32:24.252Z,23.3
2019-01-04T05:35:30.178Z,23.3
2019-01-04T05:38:36.140Z,23.3
2019-01-04T05:41:42.148Z,23.3
2019-01-04T05:44:48.182Z,23.4
2019-01-04T05:47:54.240Z,23.4
2019-01-04T05:51:00.258Z,23.5
2019-01-04T05:54:06.140Z,23.5
2019-01-04T05:57:14.659Z,23.5
2019-01-04T06:00:23.534Z,23.5
2019-01-04T06:03:29.952Z,23.5
2019-01-04T06:06:35.813Z,23.6
2019-01-04T06:09:41.753Z,23.7
2019-01-04T06:12:47.690Z,23.7
2019-01-04T06:15:53.623Z,23.6
2019-01-04T06:18:59.620Z,23.7
2019-01-04T06:22:05.566Z,23.8
2019-01-04T06:25:11.470Z,23.9
2019-01-04T06:28:17.436Z,23.9
2019-01-04T06:31:23.434Z,24
2019-01-04T06:34:29.343Z,24
2019-01-04T06:37:35.292Z,24
2019-01-04T06:40:41.228Z,24
2019-01-04T06:43:47.191Z,24.1
2019-01-04T06:46:53.199Z,24.1
2019-01-04T06:49:59.208Z,24.1
2019-01-04T06:53:07.995Z,24.1
2019-01-04T06:56:14.146Z,24.1
2019-01-04T06:59:20.203Z,24.1
2019-01-04T07:02:26.170Z,24.2
2019-01-04T07:05:32.134Z,24.2
2019-01-04T07:08:38.156Z,24.2
2019-01-04T07:11:44.088Z,24.2
2019-01-04T07:14:51.115Z,24.3
2019-01-04T07:17:57.043Z,24.4
2019-01-04T07:21:02.943Z,24.5
2019-01-04T07:24:09.077Z,24.5
2019-01-04T07:27:14.999Z,24.5
2019-01-04T07:30:21.145Z,24.5
2019-01-04T07:33:27.263Z,24.5
2019-01-04T07:36:33.263Z,24.5
2019-01-04T07:39:39.277Z,24.6
2019-01-04T07:42:45.167Z,24.5
2019-01-04T07:45:51.110Z,24.5
2019-01-04T07:48:59.049Z,24.5
2019-01-04T07:52:07.062Z,24.5
2019-01-04T07:55:13.187Z,24.5
2019-01-04T07:58:19.153Z,24.5
2019-01-04T08:01:25.122Z,24.5
2019-01-04T08:04:31.470Z,24.5
2019-01-04T08:07:37.353Z,24.6
2019-01-04T08:10:43.845Z,24.5
2019-01-04T08:13:52.308Z,24.5
2019-01-04T08:16:58.324Z,24.6
2019-01-04T08:20:04.174Z,24.5
2019-01-04T08:23:10.174Z,24.6
2019-01-04T08:26:16.088Z,24.6
2019-01-04T08:29:22.061Z,24.6
2019-01-04T08:32:28.333Z,24.6
2019-01-04T08:35:34.337Z,24.7
2019-01-04T08:38:40.347Z,24.7
2019-01-04T08:41:46.384Z,24.7
2019-01-04T08:44:52.406Z,24.7
2019-01-04T08:47:58.387Z,24.8
2019-01-04T08:51:04.281Z,24.8
2019-01-04T08:54:10.254Z,24.8
2019-01-04T08:57:16.204Z,24.9
2019-01-04T09:00:22.208Z,24.9
2019-01-04T09:03:28.184Z,25
2019-01-04T09:06:34.176Z,25
2019-01-04T09:09:40.214Z,25
2019-01-04T09:12:46.262Z,25
2019-01-04T09:15:52.156Z,25
2019-01-04T09:18:58.075Z,25.1
2019-01-04T09:22:04.025Z,25.1
2019-01-04T09:25:10.024Z,25.2
2019-01-04T09:28:18.057Z,25.2
2019-01-04T09:31:24.169Z,25.2
2019-01-04T09:34:30.265Z,25.2
2019-01-04T09:37:36.379Z,25.3
2019-01-04T09:40:42.386Z,25.2
2019-01-04T09:43:49.241Z,25.2
2019-01-04T09:46:55.534Z,25.3
2019-01-04T09:50:03.379Z,25.2
2019-01-04T09:53:09.446Z,25.2
2019-01-04T09:56:15.517Z,25.2
2019-01-04T09:59:21.429Z,25.2
2019-01-04T10:02:28.570Z,25.2
2019-01-04T10:05:34.581Z,25.3
2019-01-04T10:08:44.836Z,25.3
2019-01-04T10:11:52.077Z,25.4
2019-01-04T10:14:58.123Z,25.3
2019-01-04T10:18:04.106Z,25.4
2019-01-04T10:21:10.094Z,25.3
2019-01-04T10:24:16.026Z,25.3
2019-01-04T10:27:21.917Z,25.3
2019-01-04T10:30:27.850Z,25.3
2019-01-04T10:33:33.754Z,25.4
2019-01-04T10:36:42.539Z,25.3
2019-01-04T10:39:48.418Z,25.4
2019-01-04T10:42:54.495Z,25.4
2019-01-04T10:46:00.495Z,25.4
2019-01-04T10:49:06.457Z,25.4
2019-01-04T10:52:12.362Z,25.5
2019-01-04T10:55:18.309Z,25.4
2019-01-04T10:58:24.181Z,25.5
2019-01-04T11:01:30.169Z,25.5
2019-01-04T11:04:36.321Z,25.5
2019-01-04T11:07:42.321Z,25.5
2019-01-04T11:10:48.369Z,25.5
2019-01-04T11:13:54.451Z,25.6
2019-01-04T11:17:00.396Z,25.6
2019-01-04T11:20:06.326Z,25.5
2019-01-04T11:23:13.404Z,25.5
2019-01-04T11:26:19.462Z,25.5
2019-01-04T11:29:25.549Z,25.4
2019-01-04T11:32:31.521Z,25.5
2019-01-04T11:35:38.533Z,25.4
2019-01-04T11:38:44.414Z,25.4
2019-01-04T11:41:50.342Z,25.4
2019-01-04T11:44:56.338Z,25.5
2019-01-04T11:48:02.416Z,25.6
2019-01-04T11:51:08.724Z,25.6
2019-01-04T11:54:14.786Z,25.6
2019-01-04T11:57:20.636Z,25.7
2019-01-04T12:00:26.777Z,25.6
2019-01-04T12:03:32.811Z,25.7
2019-01-04T12:06:38.747Z,25.7
2019-01-04T12:09:47.226Z,25.6
2019-01-04T12:12:55.331Z,25.6
2019-01-04T12:16:02.570Z,25.6
2019-01-04T12:19:08.755Z,25.6
2019-01-04T12:22:14.770Z,25.7
2019-01-04T12:25:20.793Z,25.7
2019-01-04T12:28:26.885Z,25.7
2019-01-04T12:31:32.934Z,25.7
2019-01-04T12:34:39.021Z,25.7
2019-01-04T12:37:45.151Z,25.8
2019-01-04T12:40:51.148Z,25.7
2019-01-04T12:43:58.457Z,25.7
2019-01-04T12:47:04.593Z,25.7
2019-01-04T12:50:10.503Z,25.7
2019-01-04T12:53:16.581Z,25.7
2019-01-04T12:56:22.793Z,25.7
2019-01-04T12:59:28.767Z,25.7
2019-01-04T13:02:34.635Z,25.7
2019-01-04T13:05:40.643Z,25.7
2019-01-04T13:08:46.615Z,25.6
2019-01-04T13:11:52.549Z,25.6
2019-01-04T13:14:58.537Z,25.7
2019-01-04T13:18:04.554Z,25.7
2019-01-04T13:21:10.501Z,25.8
2019-01-04T13:24:16.460Z,25.8
2019-01-04T13:27:22.719Z,25.8
2019-01-04T13:30:28.698Z,25.8
2019-01-04T13:33:34.745Z,25.8
2019-01-04T13:36:40.696Z,25.8
2019-01-04T13:39:46.738Z,25.8
2019-01-04T13:42:52.617Z,25.8
2019-01-04T13:45:58.708Z,25.8
2019-01-04T13:49:04.607Z,25.8
2019-01-04T13:52:10.615Z,25.8
2019-01-04T13:55:16.619Z,25.8
2019-01-04T13:58:23.676Z,25.8
2019-01-04T14:01:30.033Z,25.7
2019-01-04T14:04:36.208Z,25.7
2019-01-04T14:07:43.384Z,25.7
2019-01-04T14:10:49.446Z,25.7
2019-01-04T14:13:55.465Z,25.7
2019-01-04T14:17:01.489Z,25.7
2019-01-04T14:20:10.071Z,25.7
2019-01-04T14:23:16.034Z,25.7
2019-01-04T14:26:21.984Z,25.7
2019-01-04T14:29:27.890Z,25.7
2019-01-04T14:32:33.883Z,25.6
2019-01-04T14:35:40.219Z,25.6
2019-01-04T14:38:46.403Z,25.6
2019-01-04T14:41:53.875Z,25.6
2019-01-04T14:45:01.265Z,25.5
2019-01-04T14:48:07.193Z,25.5
2019-01-04T14:51:13.217Z,25.5
2019-01-04T14:54:20.251Z,25.5
2019-01-04T14:57:26.762Z,25.6
2019-01-04T15:00:32.789Z,25.5
2019-01-04T15:03:38.802Z,25.6
2019-01-04T15:06:44.924Z,25.5
2019-01-04T15:09:50.862Z,25.5
2019-01-04T15:12:56.948Z,25.5
2019-01-04T15:16:02.866Z,25.5
2019-01-04T15:19:08.923Z,25.6
2019-01-04T15:22:14.948Z,25.6
2019-01-04T15:25:20.954Z,25.6
2019-01-04T15:28:26.876Z,25.7
2019-01-04T15:31:34.803Z,25.7
2019-01-04T15:34:40.981Z,25.6
2019-01-04T15:37:46.902Z,25.6
2019-01-04T15:40:52.845Z,25.6
2019-01-04T15:43:58.836Z,25.6
2019-01-04T15:47:05.017Z,25.7
2019-01-04T15:50:10.918Z,25.6
2019-01-04T15:53:16.983Z,25.6
2019-01-04T15:56:22.998Z,25.6
2019-01-04T15:59:29.096Z,25.7
2019-01-04T16:02:35.078Z,25.6
2019-01-04T16:05:41.137Z,25.7
2019-01-04T16:08:50.101Z,25.7
2019-01-04T16:11:58.730Z,25.6
2019-01-04T16:15:04.769Z,25.6
2019-01-04T16:18:10.738Z,25.7
2019-01-04T16:21:16.788Z,25.7
2019-01-04T16:24:22.783Z,25.8
2019-01-04T16:27:28.644Z,25.7
2019-01-04T16:30:34.627Z,25.8
2019-01-04T16:33:40.639Z,25.7
2019-01-04T16:36:46.891Z,25.8
2019-01-04T16:39:52.810Z,25.8
2019-01-04T16:42:58.755Z,25.8
2019-01-04T16:46:04.750Z,25.9
2019-01-04T16:49:10.660Z,25.8
2019-01-04T16:52:16.710Z,25.7
2019-01-04T16:55:22.665Z,25.7
2019-01-04T16:58:28.581Z,25.6
2019-01-04T17:01:34.677Z,25.6
2019-01-04T17:04:40.555Z,25.5
2019-01-04T17:07:46.530Z,25.5
2019-01-04T17:10:52.459Z,25.4
2019-01-04T17:13:58.541Z,25.4
2019-01-04T17:17:04.429Z,25.3
2019-01-04T17:20:10.427Z,25.3
2019-01-04T17:23:16.314Z,25.2
2019-01-04T17:26:22.269Z,25.2
2019-01-04T17:29:28.237Z,25.1
2019-01-04T17:32:34.239Z,25.1
2019-01-04T17:35:40.208Z,25
2019-01-04T17:38:46.110Z,25
2019-01-04T17:41:52.097Z,25
2019-01-04T17:44:58.066Z,25
2019-01-04T17:48:04.073Z,25
2019-01-04T17:51:10.004Z,24.9
2019-01-04T17:54:15.979Z,24.9
2019-01-04T17:57:24.997Z,24.9
2019-01-04T18:00:31.066Z,24.9
2019-01-04T18:03:37.085Z,24.9
2019-01-04T18:06:43.027Z,24.9
2019-01-04T18:09:48.919Z,24.8
2019-01-04T18:12:54.948Z,24.8
2019-01-04T18:16:00.911Z,24.7
2019-01-04T18:19:06.760Z,24.6
2019-01-04T18:22:12.693Z,24.6
2019-01-04T18:25:18.691Z,24.6
2019-01-04T18:28:24.536Z,24.6
2019-01-04T18:31:30.479Z,24.6
2019-01-04T18:34:36.309Z,24.5
2019-01-04T18:37:42.319Z,24.5
2019-01-04T18:40:48.279Z,24.5
2019-01-04T18:43:54.144Z,24.4
2019-01-04T18:47:00.108Z,24.4
2019-01-04T18:50:06.122Z,24.4
2019-01-04T18:53:12.079Z,24.3
2019-01-04T18:56:17.965Z,24.3
2019-01-04T18:59:23.929Z,24.3
2019-01-04T19:02:29.897Z,24.2
2019-01-04T19:05:35.744Z,24.2
2019-01-04T19:08:41.687Z,24.2
2019-01-04T19:11:47.623Z,24.2
2019-01-04T19:14:53.623Z,24.1
2019-01-04T19:17:59.480Z,24.1
2019-01-04T19:21:05.490Z,24.1
2019-01-04T19:24:11.461Z,24
2019-01-04T19:27:17.428Z,24
2019-01-04T19:30:23.495Z,23.8
2019-01-04T19:33:29.403Z,23.8
2019-01-04T19:36:35.353Z,23.7
2019-01-04T19:39:41.271Z,23.7
2019-01-04T19:42:47.173Z,23.6
2019-01-04T19:45:53.180Z,23.5
2019-01-04T19:48:59.112Z,23.5
2019-01-04T19:52:05.105Z,23.4
2019-01-04T19:55:11.017Z,23.4
2019-01-04T19:58:16.911Z,23.3
2019-01-04T20:01:22.809Z,23.2
2019-01-04T20:04:28.669Z,23.2
2019-01-04T20:07:35.834Z,23.2
2019-01-04T20:10:41.772Z,23.1
2019-01-04T20:13:47.780Z,23
2019-01-04T20:16:53.755Z,23
2019-01-04T20:19:59.755Z,23
2019-01-04T20:23:05.732Z,22.9
2019-01-04T20:26:11.691Z,22.9
2019-01-04T20:29:17.669Z,22.9
2019-01-04T20:32:23.542Z,22.8
2019-01-04T20:35:29.475Z,22.8
2019-01-04T20:38:38.442Z,22.7
2019-01-04T20:41:44.375Z,22.7
2019-01-04T20:44:50.236Z,22.7
2019-01-04T20:47:56.159Z,22.6
2019-01-04T20:51:02.053Z,22.6
2019-01-04T20:54:08.001Z,22.6
2019-01-04T20:57:13.871Z,22.5
2019-01-04T21:00:19.808Z,22.5
2019-01-04T21:03:25.775Z,22.5
2019-01-04T21:06:32.486Z,22.5
2019-01-04T21:09:38.489Z,22.5
2019-01-04T21:12:47.240Z,22.4
2019-01-04T21:15:53.224Z,22.4
2019-01-04T21:18:59.077Z,22.4
2019-01-04T21:22:05.007Z,22.3
2019-01-04T21:25:11.065Z,22.3
2019-01-04T21:28:17.004Z,22.3
2019-01-04T21:31:22.913Z,22.3
2019-01-04T21:34:28.848Z,22.3
2019-01-04T21:37:34.833Z,22.3
2019-01-04T21:40:40.684Z,22.3
2019-01-04T21:43:46.612Z,22.2
2019-01-04T21:46:52.500Z,22.2
2019-01-04T21:49:58.440Z,22.2
2019-01-04T21:53:04.570Z,22.2
2019-01-04T21:56:10.518Z,22.2
2019-01-04T21:59:16.502Z,22.2
2019-01-04T22:02:25.061Z,22.2
2019-01-04T22:05:30.997Z,22.1
2019-01-04T22:08:36.879Z,22.1
2019-01-04T22:11:42.815Z,22.1
2019-01-04T22:14:48.799Z,22
2019-01-04T22:17:54.693Z,22.1
2019-01-04T22:21:00.678Z,22
2019-01-04T22:24:06.582Z,22
2019-01-04T22:27:12.523Z,22
2019-01-04T22:30:18.453Z,22
2019-01-04T22:33:24.378Z,21.9
2019-01-04T22:36:30.305Z,21.9
2019-01-04T22:39:36.362Z,21.9
2019-01-04T22:42:42.227Z,21.9
2019-01-04T22:45:52.128Z,21.9
2019-01-04T22:48:58.040Z,21.9
2019-01-04T22:52:03.978Z,21.9
2019-01-04T22:55:09.860Z,21.8
2019-01-04T22:58:15.765Z,21.8
2019-01-04T23:01:21.775Z,21.8
2019-01-04T23:04:27.641Z,21.8
2019-01-04T23:07:33.557Z,21.8
2019-01-04T23:10:39.614Z,21.8
2019-01-04T23:13:45.566Z,21.8
2019-01-04T23:16:51.681Z,21.7
2019-01-04T23:19:57.620Z,21.7
2019-01-04T23:23:03.623Z,21.7
2019-01-04T23:26:11.990Z,21.7
2019-01-04T23:29:23.802Z,21.7
2019-01-04T23:32:29.785Z,21.7
2019-01-04T23:35:35.853Z,21.7
2019-01-04T23:38:41.795Z,21.7
2019-01-04T23:41:47.742Z,21.6
2019-01-04T23:44:53.676Z,21.6
2019-01-04T23:48:05.364Z,21.6
2019-01-04T23:51:11.263Z,21.6
2019-01-04T23:54:17.255Z,21.6
2019-01-04T23:57:23.250Z,21.6
